sensor_id;sensor_type;location;lat;lon;timestamp;temperature;humidity
5461;DHT22;2753;49.196;8.286;2022-07-15T00:01:57;22.90;60.00
5461;DHT22;2753;49.196;8.286;2022-07-15T00:04:23;22.90;60.10
5461;DHT22;2753;49.196;8.286;2022-07-15T00:06:49;22.80;60.30
5461;DHT22;2753;49.196;8.286;2022-07-15T00:09:15;22.80;60.20
5461;DHT22;2753;49.196;8.286;2022-07-15T00:11:40;22.70;60.30
5461;DHT22;2753;49.196;8.286;2022-07-15T00:14:06;22.80;60.10
5461;DHT22;2753;49.196;8.286;2022-07-15T00:16:32;22.80;60.00
5461;DHT22;2753;49.196;8.286;2022-07-15T00:18:57;22.80;59.90
5461;DHT22;2753;49.196;8.286;2022-07-15T00:21:23;22.80;60.00
5461;DHT22;2753;49.196;8.286;2022-07-15T00:23:49;22.80;60.00
5461;DHT22;2753;49.196;8.286;2022-07-15T00:26:15;22.70;60.00
5461;DHT22;2753;49.196;8.286;2022-07-15T00:28:40;22.70;60.30
5461;DHT22;2753;49.196;8.286;2022-07-15T00:31:06;22.60;60.40
5461;DHT22;2753;49.196;8.286;2022-07-15T00:33:32;22.60;60.40
5461;DHT22;2753;49.196;8.286;2022-07-15T00:35:57;22.50;60.80
5461;DHT22;2753;49.196;8.286;2022-07-15T00:38:23;22.50;61.10
5461;DHT22;2753;49.196;8.286;2022-07-15T00:40:49;22.40;61.40
5461;DHT22;2753;49.196;8.286;2022-07-15T00:43:16;22.20;61.70
5461;DHT22;2753;49.196;8.286;2022-07-15T00:45:43;22.20;61.90
5461;DHT22;2753;49.196;8.286;2022-07-15T00:48:09;22.10;62.00
5461;DHT22;2753;49.196;8.286;2022-07-15T00:50:36;22.10;61.90
5461;DHT22;2753;49.196;8.286;2022-07-15T00:53:12;22.00;62.30
5461;DHT22;2753;49.196;8.286;2022-07-15T00:55:42;22.00;62.10
5461;DHT22;2753;49.196;8.286;2022-07-15T00:58:11;22.00;63.00
5461;DHT22;2753;49.196;8.286;2022-07-15T01:00:39;22.00;62.10
5461;DHT22;2753;49.196;8.286;2022-07-15T01:03:07;22.00;62.10
5461;DHT22;2753;49.196;8.286;2022-07-15T01:05:33;21.90;62.30
5461;DHT22;2753;49.196;8.286;2022-07-15T01:07:59;21.80;62.60
5461;DHT22;2753;49.196;8.286;2022-07-15T01:10:25;21.80;62.60
5461;DHT22;2753;49.196;8.286;2022-07-15T01:12:51;21.80;62.60
5461;DHT22;2753;49.196;8.286;2022-07-15T01:15:17;21.70;62.70
5461;DHT22;2753;49.196;8.286;2022-07-15T01:17:44;21.70;62.90
5461;DHT22;2753;49.196;8.286;2022-07-15T01:20:11;21.70;62.90
5461;DHT22;2753;49.196;8.286;2022-07-15T01:22:38;21.60;63.10
5461;DHT22;2753;49.196;8.286;2022-07-15T01:25:04;21.50;63.10
5461;DHT22;2753;49.196;8.286;2022-07-15T01:27:30;21.50;63.30
5461;DHT22;2753;49.196;8.286;2022-07-15T01:29:58;21.40;63.40
5461;DHT22;2753;49.196;8.286;2022-07-15T01:32:25;21.50;63.50
5461;DHT22;2753;49.196;8.286;2022-07-15T01:34:51;21.40;63.70
5461;DHT22;2753;49.196;8.286;2022-07-15T01:37:17;21.30;63.80
5461;DHT22;2753;49.196;8.286;2022-07-15T01:39:43;21.30;64.00
5461;DHT22;2753;49.196;8.286;2022-07-15T01:42:08;21.30;63.90
5461;DHT22;2753;49.196;8.286;2022-07-15T01:44:34;21.20;63.90
5461;DHT22;2753;49.196;8.286;2022-07-15T01:47:00;21.10;64.20
5461;DHT22;2753;49.196;8.286;2022-07-15T01:49:26;21.10;64.10
5461;DHT22;2753;49.196;8.286;2022-07-15T01:51:53;21.00;64.20
5461;DHT22;2753;49.196;8.286;2022-07-15T01:54:20;21.00;64.20
5461;DHT22;2753;49.196;8.286;2022-07-15T01:56:46;21.00;64.20
5461;DHT22;2753;49.196;8.286;2022-07-15T01:59:11;21.00;64.40
5461;DHT22;2753;49.196;8.286;2022-07-15T02:01:37;20.90;64.60
5461;DHT22;2753;49.196;8.286;2022-07-15T02:04:03;20.90;65.50
5461;DHT22;2753;49.196;8.286;2022-07-15T02:06:29;20.80;65.10
5461;DHT22;2753;49.196;8.286;2022-07-15T02:08:55;20.80;64.80
5461;DHT22;2753;49.196;8.286;2022-07-15T02:11:21;20.90;64.70
5461;DHT22;2753;49.196;8.286;2022-07-15T02:13:47;20.80;65.00
5461;DHT22;2753;49.196;8.286;2022-07-15T02:16:13;20.80;64.60
5461;DHT22;2753;49.196;8.286;2022-07-15T02:18:39;20.80;64.10
5461;DHT22;2753;49.196;8.286;2022-07-15T02:21:05;20.80;64.30
5461;DHT22;2753;49.196;8.286;2022-07-15T02:23:31;20.80;64.30
5461;DHT22;2753;49.196;8.286;2022-07-15T02:25:56;20.80;64.60
5461;DHT22;2753;49.196;8.286;2022-07-15T02:28:22;20.70;64.90
5461;DHT22;2753;49.196;8.286;2022-07-15T02:30:48;20.70;65.30
5461;DHT22;2753;49.196;8.286;2022-07-15T02:33:14;20.60;65.00
5461;DHT22;2753;49.196;8.286;2022-07-15T02:35:40;20.60;65.30
5461;DHT22;2753;49.196;8.286;2022-07-15T02:38:07;20.50;65.30
5461;DHT22;2753;49.196;8.286;2022-07-15T02:40:33;20.50;65.10
5461;DHT22;2753;49.196;8.286;2022-07-15T02:43:00;20.50;65.50
5461;DHT22;2753;49.196;8.286;2022-07-15T02:45:28;20.50;65.70
5461;DHT22;2753;49.196;8.286;2022-07-15T02:47:55;20.40;65.50
5461;DHT22;2753;49.196;8.286;2022-07-15T02:50:21;20.40;65.80
5461;DHT22;2753;49.196;8.286;2022-07-15T02:52:47;20.30;65.60
5461;DHT22;2753;49.196;8.286;2022-07-15T02:55:13;20.40;65.70
5461;DHT22;2753;49.196;8.286;2022-07-15T02:57:40;20.30;66.30
5461;DHT22;2753;49.196;8.286;2022-07-15T03:00:09;20.20;66.00
5461;DHT22;2753;49.196;8.286;2022-07-15T03:02:36;20.20;66.20
5461;DHT22;2753;49.196;8.286;2022-07-15T03:05:03;20.10;66.70
5461;DHT22;2753;49.196;8.286;2022-07-15T03:07:32;20.10;66.40
5461;DHT22;2753;49.196;8.286;2022-07-15T03:09:58;20.10;66.90
5461;DHT22;2753;49.196;8.286;2022-07-15T03:12:24;20.00;67.20
5461;DHT22;2753;49.196;8.286;2022-07-15T03:14:50;20.00;67.10
5461;DHT22;2753;49.196;8.286;2022-07-15T03:17:16;20.00;67.10
5461;DHT22;2753;49.196;8.286;2022-07-15T03:19:42;20.00;66.70
5461;DHT22;2753;49.196;8.286;2022-07-15T03:22:08;19.90;67.30
5461;DHT22;2753;49.196;8.286;2022-07-15T03:24:33;19.90;67.40
5461;DHT22;2753;49.196;8.286;2022-07-15T03:26:59;19.70;67.80
5461;DHT22;2753;49.196;8.286;2022-07-15T03:29:25;19.60;68.20
5461;DHT22;2753;49.196;8.286;2022-07-15T03:31:52;19.60;68.30
5461;DHT22;2753;49.196;8.286;2022-07-15T03:34:17;19.60;68.30
5461;DHT22;2753;49.196;8.286;2022-07-15T03:36:44;19.60;68.10
5461;DHT22;2753;49.196;8.286;2022-07-15T03:39:09;19.70;68.10
5461;DHT22;2753;49.196;8.286;2022-07-15T03:41:35;19.70;67.90
5461;DHT22;2753;49.196;8.286;2022-07-15T03:44:02;19.70;67.40
5461;DHT22;2753;49.196;8.286;2022-07-15T03:46:27;19.70;67.40
5461;DHT22;2753;49.196;8.286;2022-07-15T03:48:55;19.70;67.90
5461;DHT22;2753;49.196;8.286;2022-07-15T03:51:21;19.70;68.40
5461;DHT22;2753;49.196;8.286;2022-07-15T03:53:46;19.60;68.70
5461;DHT22;2753;49.196;8.286;2022-07-15T03:56:12;19.40;68.70
5461;DHT22;2753;49.196;8.286;2022-07-15T03:58:38;19.50;68.60
5461;DHT22;2753;49.196;8.286;2022-07-15T04:01:04;19.50;68.40
5461;DHT22;2753;49.196;8.286;2022-07-15T04:03:30;19.50;68.70
5461;DHT22;2753;49.196;8.286;2022-07-15T04:05:56;19.40;68.80
5461;DHT22;2753;49.196;8.286;2022-07-15T04:08:22;19.40;68.80
5461;DHT22;2753;49.196;8.286;2022-07-15T04:10:47;19.40;68.70
5461;DHT22;2753;49.196;8.286;2022-07-15T04:13:13;19.40;68.70
5461;DHT22;2753;49.196;8.286;2022-07-15T04:15:44;19.40;68.70
5461;DHT22;2753;49.196;8.286;2022-07-15T04:18:10;19.30;69.00
5461;DHT22;2753;49.196;8.286;2022-07-15T04:20:36;19.40;69.10
5461;DHT22;2753;49.196;8.286;2022-07-15T04:23:01;19.30;69.10
5461;DHT22;2753;49.196;8.286;2022-07-15T04:25:27;19.30;69.00
5461;DHT22;2753;49.196;8.286;2022-07-15T04:27:53;19.30;69.30
5461;DHT22;2753;49.196;8.286;2022-07-15T04:30:18;19.30;68.80
5461;DHT22;2753;49.196;8.286;2022-07-15T04:32:44;19.40;68.60
5461;DHT22;2753;49.196;8.286;2022-07-15T04:35:10;19.40;68.90
5461;DHT22;2753;49.196;8.286;2022-07-15T04:37:35;19.40;69.00
5461;DHT22;2753;49.196;8.286;2022-07-15T04:40:01;19.30;69.50
5461;DHT22;2753;49.196;8.286;2022-07-15T04:42:26;19.30;69.00
5461;DHT22;2753;49.196;8.286;2022-07-15T04:44:52;19.30;68.80
5461;DHT22;2753;49.196;8.286;2022-07-15T04:47:18;19.30;68.80
5461;DHT22;2753;49.196;8.286;2022-07-15T04:49:43;19.40;69.00
5461;DHT22;2753;49.196;8.286;2022-07-15T04:52:28;19.40;68.50
5461;DHT22;2753;49.196;8.286;2022-07-15T04:54:56;19.40;68.40
5461;DHT22;2753;49.196;8.286;2022-07-15T04:57:22;19.40;68.40
5461;DHT22;2753;49.196;8.286;2022-07-15T04:59:48;19.40;68.60
5461;DHT22;2753;49.196;8.286;2022-07-15T05:02:14;19.40;68.70
5461;DHT22;2753;49.196;8.286;2022-07-15T05:04:40;19.40;69.00
5461;DHT22;2753;49.196;8.286;2022-07-15T05:07:06;19.40;69.00
5461;DHT22;2753;49.196;8.286;2022-07-15T05:09:33;19.40;69.00
5461;DHT22;2753;49.196;8.286;2022-07-15T05:11:59;19.40;68.80
5461;DHT22;2753;49.196;8.286;2022-07-15T05:14:24;19.50;69.10
5461;DHT22;2753;49.196;8.286;2022-07-15T05:16:50;19.50;69.10
5461;DHT22;2753;49.196;8.286;2022-07-15T05:19:16;19.50;68.70
5461;DHT22;2753;49.196;8.286;2022-07-15T05:21:42;19.60;68.90
5461;DHT22;2753;49.196;8.286;2022-07-15T05:24:07;19.60;68.50
5461;DHT22;2753;49.196;8.286;2022-07-15T05:26:33;19.50;68.80
5461;DHT22;2753;49.196;8.286;2022-07-15T05:28:59;19.50;69.00
5461;DHT22;2753;49.196;8.286;2022-07-15T05:31:24;19.50;68.90
5461;DHT22;2753;49.196;8.286;2022-07-15T05:33:50;19.60;69.00
5461;DHT22;2753;49.196;8.286;2022-07-15T05:36:18;19.60;69.20
5461;DHT22;2753;49.196;8.286;2022-07-15T05:38:44;19.60;69.20
5461;DHT22;2753;49.196;8.286;2022-07-15T05:41:10;19.60;69.20
5461;DHT22;2753;49.196;8.286;2022-07-15T05:46:57;19.60;69.10
5461;DHT22;2753;49.196;8.286;2022-07-15T05:49:23;19.70;69.00
5461;DHT22;2753;49.196;8.286;2022-07-15T05:51:49;19.70;68.80
5461;DHT22;2753;49.196;8.286;2022-07-15T05:54:14;19.80;68.70
5461;DHT22;2753;49.196;8.286;2022-07-15T05:56:40;19.80;68.90
5461;DHT22;2753;49.196;8.286;2022-07-15T05:59:07;19.80;68.80
5461;DHT22;2753;49.196;8.286;2022-07-15T06:01:33;19.80;68.70
5461;DHT22;2753;49.196;8.286;2022-07-15T06:03:59;19.80;69.00
5461;DHT22;2753;49.196;8.286;2022-07-15T06:06:24;19.80;68.70
5461;DHT22;2753;49.196;8.286;2022-07-15T06:08:50;19.90;68.80
5461;DHT22;2753;49.196;8.286;2022-07-15T06:11:16;19.90;68.90
5461;DHT22;2753;49.196;8.286;2022-07-15T06:13:41;19.90;69.00
5461;DHT22;2753;49.196;8.286;2022-07-15T06:16:07;20.00;68.60
5461;DHT22;2753;49.196;8.286;2022-07-15T06:18:33;20.00;68.80
5461;DHT22;2753;49.196;8.286;2022-07-15T06:20:59;20.10;68.70
5461;DHT22;2753;49.196;8.286;2022-07-15T06:23:24;20.10;68.30
5461;DHT22;2753;49.196;8.286;2022-07-15T06:25:50;20.20;69.10
5461;DHT22;2753;49.196;8.286;2022-07-15T06:28:16;20.20;68.30
5461;DHT22;2753;49.196;8.286;2022-07-15T06:30:42;20.20;68.40
5461;DHT22;2753;49.196;8.286;2022-07-15T06:33:07;20.20;68.10
5461;DHT22;2753;49.196;8.286;2022-07-15T06:35:34;20.30;68.20
5461;DHT22;2753;49.196;8.286;2022-07-15T06:38:00;20.30;68.00
5461;DHT22;2753;49.196;8.286;2022-07-15T06:40:25;20.30;68.10
5461;DHT22;2753;49.196;8.286;2022-07-15T06:42:51;20.40;68.10
5461;DHT22;2753;49.196;8.286;2022-07-15T06:45:16;20.50;67.80
5461;DHT22;2753;49.196;8.286;2022-07-15T06:47:43;20.60;66.80
5461;DHT22;2753;49.196;8.286;2022-07-15T06:50:10;20.70;66.70
5461;DHT22;2753;49.196;8.286;2022-07-15T06:52:35;20.80;66.60
5461;DHT22;2753;49.196;8.286;2022-07-15T06:55:02;20.90;65.50
5461;DHT22;2753;49.196;8.286;2022-07-15T06:57:27;21.10;65.20
5461;DHT22;2753;49.196;8.286;2022-07-15T06:59:54;21.30;64.90
5461;DHT22;2753;49.196;8.286;2022-07-15T07:02:20;21.60;64.90
5461;DHT22;2753;49.196;8.286;2022-07-15T07:04:46;21.80;64.70
5461;DHT22;2753;49.196;8.286;2022-07-15T07:07:11;21.90;64.60
5461;DHT22;2753;49.196;8.286;2022-07-15T07:09:37;22.10;64.10
5461;DHT22;2753;49.196;8.286;2022-07-15T07:12:03;22.10;63.30
5461;DHT22;2753;49.196;8.286;2022-07-15T07:14:29;22.30;63.50
5461;DHT22;2753;49.196;8.286;2022-07-15T07:16:55;22.50;63.70
5461;DHT22;2753;49.196;8.286;2022-07-15T07:19:21;22.60;63.70
5461;DHT22;2753;49.196;8.286;2022-07-15T07:21:46;22.80;62.70
5461;DHT22;2753;49.196;8.286;2022-07-15T07:24:12;22.80;62.40
5461;DHT22;2753;49.196;8.286;2022-07-15T07:26:38;22.90;61.90
5461;DHT22;2753;49.196;8.286;2022-07-15T07:29:03;23.00;61.30
5461;DHT22;2753;49.196;8.286;2022-07-15T07:31:30;22.90;61.50
5461;DHT22;2753;49.196;8.286;2022-07-15T07:33:57;23.10;61.90
5461;DHT22;2753;49.196;8.286;2022-07-15T07:36:24;23.30;61.40
5461;DHT22;2753;49.196;8.286;2022-07-15T07:38:50;23.50;60.60
5461;DHT22;2753;49.196;8.286;2022-07-15T07:41:16;23.70;60.30
5461;DHT22;2753;49.196;8.286;2022-07-15T07:43:42;23.80;59.50
5461;DHT22;2753;49.196;8.286;2022-07-15T07:46:07;23.80;59.60
5461;DHT22;2753;49.196;8.286;2022-07-15T07:48:33;23.90;59.70
5461;DHT22;2753;49.196;8.286;2022-07-15T07:50:59;24.10;59.50
5461;DHT22;2753;49.196;8.286;2022-07-15T07:53:25;24.20;58.90
5461;DHT22;2753;49.196;8.286;2022-07-15T07:55:51;24.60;58.50
5461;DHT22;2753;49.196;8.286;2022-07-15T07:58:17;24.90;58.10
5461;DHT22;2753;49.196;8.286;2022-07-15T08:00:45;25.00;58.50
5461;DHT22;2753;49.196;8.286;2022-07-15T08:03:11;24.90;57.90
5461;DHT22;2753;49.196;8.286;2022-07-15T08:05:37;24.80;57.80
5461;DHT22;2753;49.196;8.286;2022-07-15T08:08:15;24.70;57.40
5461;DHT22;2753;49.196;8.286;2022-07-15T08:10:43;25.10;57.80
5461;DHT22;2753;49.196;8.286;2022-07-15T08:13:10;25.20;57.50
5461;DHT22;2753;49.196;8.286;2022-07-15T08:15:36;25.30;57.00
5461;DHT22;2753;49.196;8.286;2022-07-15T08:18:02;25.40;56.60
5461;DHT22;2753;49.196;8.286;2022-07-15T08:20:28;25.60;56.20
5461;DHT22;2753;49.196;8.286;2022-07-15T08:22:55;25.60;56.50
5461;DHT22;2753;49.196;8.286;2022-07-15T08:25:31;25.80;56.40
5461;DHT22;2753;49.196;8.286;2022-07-15T08:27:58;25.80;56.00
5461;DHT22;2753;49.196;8.286;2022-07-15T08:30:25;25.60;55.70
5461;DHT22;2753;49.196;8.286;2022-07-15T08:32:51;25.50;55.90
5461;DHT22;2753;49.196;8.286;2022-07-15T08:35:17;25.50;55.20
5461;DHT22;2753;49.196;8.286;2022-07-15T08:37:43;25.50;55.90
5461;DHT22;2753;49.196;8.286;2022-07-15T08:40:10;26.00;55.90
5461;DHT22;2753;49.196;8.286;2022-07-15T08:42:37;26.40;55.00
5461;DHT22;2753;49.196;8.286;2022-07-15T08:45:06;26.60;54.10
5461;DHT22;2753;49.196;8.286;2022-07-15T08:47:32;26.70;53.60
5461;DHT22;2753;49.196;8.286;2022-07-15T08:49:58;26.60;54.50
5461;DHT22;2753;49.196;8.286;2022-07-15T08:52:25;26.80;53.40
5461;DHT22;2753;49.196;8.286;2022-07-15T08:54:51;27.10;53.10
5461;DHT22;2753;49.196;8.286;2022-07-15T08:57:17;27.10;52.20
5461;DHT22;2753;49.196;8.286;2022-07-15T08:59:43;27.20;52.30
5461;DHT22;2753;49.196;8.286;2022-07-15T09:02:12;27.30;52.70
5461;DHT22;2753;49.196;8.286;2022-07-15T09:07:52;27.10;52.10
5461;DHT22;2753;49.196;8.286;2022-07-15T09:10:19;26.90;52.60
5461;DHT22;2753;49.196;8.286;2022-07-15T09:12:49;26.90;52.70
5461;DHT22;2753;49.196;8.286;2022-07-15T09:15:32;26.90;53.30
5461;DHT22;2753;49.196;8.286;2022-07-15T09:18:06;27.00;52.30
5461;DHT22;2753;49.196;8.286;2022-07-15T09:20:32;27.10;52.30
5461;DHT22;2753;49.196;8.286;2022-07-15T09:22:58;27.10;52.00
5461;DHT22;2753;49.196;8.286;2022-07-15T09:25:26;27.40;51.80
5461;DHT22;2753;49.196;8.286;2022-07-15T09:27:53;27.20;51.10
5461;DHT22;2753;49.196;8.286;2022-07-15T09:30:24;27.00;51.20
5461;DHT22;2753;49.196;8.286;2022-07-15T09:33:23;27.10;51.50
5461;DHT22;2753;49.196;8.286;2022-07-15T09:41:29;27.50;50.70
5461;DHT22;2753;49.196;8.286;2022-07-15T09:43:58;27.50;50.60
5461;DHT22;2753;49.196;8.286;2022-07-15T09:46:41;27.40;50.40
5461;DHT22;2753;49.196;8.286;2022-07-15T09:49:07;27.30;50.80
5461;DHT22;2753;49.196;8.286;2022-07-15T09:51:49;27.30;50.00
5461;DHT22;2753;49.196;8.286;2022-07-15T09:54:16;27.30;50.50
5461;DHT22;2753;49.196;8.286;2022-07-15T09:56:42;27.20;51.50
5461;DHT22;2753;49.196;8.286;2022-07-15T09:59:09;27.00;51.40
5461;DHT22;2753;49.196;8.286;2022-07-15T10:01:35;26.90;51.70
5461;DHT22;2753;49.196;8.286;2022-07-15T10:04:03;27.00;50.80
5461;DHT22;2753;49.196;8.286;2022-07-15T10:06:32;27.00;51.60
5461;DHT22;2753;49.196;8.286;2022-07-15T10:08:58;26.90;51.60
5461;DHT22;2753;49.196;8.286;2022-07-15T10:11:24;26.90;51.50
5461;DHT22;2753;49.196;8.286;2022-07-15T10:13:56;26.90;49.50
5461;DHT22;2753;49.196;8.286;2022-07-15T10:30:19;26.90;50.60
5461;DHT22;2753;49.196;8.286;2022-07-15T10:33:18;26.80;51.00
5461;DHT22;2753;49.196;8.286;2022-07-15T10:41:10;26.60;51.40
5461;DHT22;2753;49.196;8.286;2022-07-15T10:43:56;26.70;51.50
5461;DHT22;2753;49.196;8.286;2022-07-15T10:46:34;26.60;50.90
5461;DHT22;2753;49.196;8.286;2022-07-15T10:54:02;26.50;51.10
5461;DHT22;2753;49.196;8.286;2022-07-15T10:56:41;26.50;51.20
5461;DHT22;2753;49.196;8.286;2022-07-15T11:01:33;26.40;51.30
5461;DHT22;2753;49.196;8.286;2022-07-15T11:04:14;26.40;51.50
5461;DHT22;2753;49.196;8.286;2022-07-15T11:15:05;26.40;52.50
5461;DHT22;2753;49.196;8.286;2022-07-15T11:20:03;26.40;51.80
5461;DHT22;2753;49.196;8.286;2022-07-15T11:22:31;26.40;51.80
5461;DHT22;2753;49.196;8.286;2022-07-15T11:24:57;26.30;51.10
5461;DHT22;2753;49.196;8.286;2022-07-15T11:27:25;26.20;51.50
5461;DHT22;2753;49.196;8.286;2022-07-15T11:29:53;26.10;51.40
5461;DHT22;2753;49.196;8.286;2022-07-15T11:32:22;26.10;51.30
5461;DHT22;2753;49.196;8.286;2022-07-15T11:34:55;26.10;51.60
5461;DHT22;2753;49.196;8.286;2022-07-15T11:37:25;26.10;51.80
5461;DHT22;2753;49.196;8.286;2022-07-15T11:40:08;26.20;52.00
5461;DHT22;2753;49.196;8.286;2022-07-15T11:42:34;26.00;52.30
5461;DHT22;2753;49.196;8.286;2022-07-15T11:45:37;26.00;52.00
5461;DHT22;2753;49.196;8.286;2022-07-15T11:48:04;26.00;52.00
5461;DHT22;2753;49.196;8.286;2022-07-15T11:50:33;26.10;51.10
5461;DHT22;2753;49.196;8.286;2022-07-15T11:52:59;26.20;52.00
5461;DHT22;2753;49.196;8.286;2022-07-15T11:55:25;26.20;51.50
5461;DHT22;2753;49.196;8.286;2022-07-15T11:57:51;26.00;51.80
5461;DHT22;2753;49.196;8.286;2022-07-15T12:00:29;26.10;51.40
5461;DHT22;2753;49.196;8.286;2022-07-15T12:03:06;26.10;51.20
5461;DHT22;2753;49.196;8.286;2022-07-15T12:05:32;26.20;51.60
5461;DHT22;2753;49.196;8.286;2022-07-15T12:07:58;26.20;51.60
5461;DHT22;2753;49.196;8.286;2022-07-15T12:10:36;26.20;51.70
5461;DHT22;2753;49.196;8.286;2022-07-15T12:13:04;26.20;52.00
5461;DHT22;2753;49.196;8.286;2022-07-15T12:15:34;26.20;51.60
5461;DHT22;2753;49.196;8.286;2022-07-15T12:18:01;26.30;51.80
5461;DHT22;2753;49.196;8.286;2022-07-15T12:20:27;26.10;52.00
5461;DHT22;2753;49.196;8.286;2022-07-15T12:23:04;26.10;52.00
5461;DHT22;2753;49.196;8.286;2022-07-15T12:25:30;26.00;52.10
5461;DHT22;2753;49.196;8.286;2022-07-15T12:27:56;26.10;52.50
5461;DHT22;2753;49.196;8.286;2022-07-15T12:30:31;26.10;51.90
5461;DHT22;2753;49.196;8.286;2022-07-15T12:33:18;26.20;51.70
5461;DHT22;2753;49.196;8.286;2022-07-15T12:35:44;26.40;52.10
5461;DHT22;2753;49.196;8.286;2022-07-15T12:38:27;26.40;51.60
5461;DHT22;2753;49.196;8.286;2022-07-15T12:40:53;26.40;51.90
5461;DHT22;2753;49.196;8.286;2022-07-15T12:43:19;26.30;51.80
5461;DHT22;2753;49.196;8.286;2022-07-15T12:45:44;26.30;51.90
5461;DHT22;2753;49.196;8.286;2022-07-15T12:48:13;26.40;52.10
5461;DHT22;2753;49.196;8.286;2022-07-15T12:53:18;26.40;52.20
5461;DHT22;2753;49.196;8.286;2022-07-15T12:55:46;26.40;52.10
5461;DHT22;2753;49.196;8.286;2022-07-15T12:58:17;26.40;52.30
5461;DHT22;2753;49.196;8.286;2022-07-15T13:00:44;26.50;52.80
5461;DHT22;2753;49.196;8.286;2022-07-15T13:03:20;26.60;52.20
5461;DHT22;2753;49.196;8.286;2022-07-15T13:05:48;26.50;51.70
5461;DHT22;2753;49.196;8.286;2022-07-15T13:10:43;26.40;52.20
5461;DHT22;2753;49.196;8.286;2022-07-15T13:13:11;26.30;51.90
5461;DHT22;2753;49.196;8.286;2022-07-15T13:15:41;26.30;52.60
5461;DHT22;2753;49.196;8.286;2022-07-15T13:18:07;26.40;52.10
5461;DHT22;2753;49.196;8.286;2022-07-15T13:20:33;26.40;52.10
5461;DHT22;2753;49.196;8.286;2022-07-15T13:23:00;26.40;52.20
5461;DHT22;2753;49.196;8.286;2022-07-15T13:25:26;26.50;52.30
5461;DHT22;2753;49.196;8.286;2022-07-15T13:27:52;26.50;52.10
5461;DHT22;2753;49.196;8.286;2022-07-15T13:30:18;26.60;52.30
5461;DHT22;2753;49.196;8.286;2022-07-15T13:32:44;26.60;51.60
5461;DHT22;2753;49.196;8.286;2022-07-15T13:35:11;26.60;51.50
5461;DHT22;2753;49.196;8.286;2022-07-15T13:37:37;26.60;51.10
5461;DHT22;2753;49.196;8.286;2022-07-15T13:40:04;26.40;51.30
5461;DHT22;2753;49.196;8.286;2022-07-15T13:42:31;26.40;51.50
5461;DHT22;2753;49.196;8.286;2022-07-15T13:44:56;26.50;51.60
5461;DHT22;2753;49.196;8.286;2022-07-15T13:47:23;26.60;51.10
5461;DHT22;2753;49.196;8.286;2022-07-15T13:49:48;26.50;51.00
5461;DHT22;2753;49.196;8.286;2022-07-15T13:52:32;26.50;51.30
5461;DHT22;2753;49.196;8.286;2022-07-15T13:54:58;26.40;51.50
5461;DHT22;2753;49.196;8.286;2022-07-15T13:57:24;26.40;52.00
5461;DHT22;2753;49.196;8.286;2022-07-15T13:59:50;26.50;52.10
5461;DHT22;2753;49.196;8.286;2022-07-15T14:02:16;26.50;52.00
5461;DHT22;2753;49.196;8.286;2022-07-15T14:04:41;26.40;51.70
5461;DHT22;2753;49.196;8.286;2022-07-15T14:07:08;26.40;52.10
5461;DHT22;2753;49.196;8.286;2022-07-15T14:09:34;26.40;51.80
5461;DHT22;2753;49.196;8.286;2022-07-15T14:11:59;26.40;52.20
5461;DHT22;2753;49.196;8.286;2022-07-15T14:14:26;26.30;51.90
5461;DHT22;2753;49.196;8.286;2022-07-15T14:16:53;26.30;52.00
5461;DHT22;2753;49.196;8.286;2022-07-15T14:19:18;26.30;51.70
5461;DHT22;2753;49.196;8.286;2022-07-15T14:21:44;26.40;52.20
5461;DHT22;2753;49.196;8.286;2022-07-15T14:24:10;26.40;51.80
5461;DHT22;2753;49.196;8.286;2022-07-15T14:26:36;26.40;51.80
5461;DHT22;2753;49.196;8.286;2022-07-15T14:29:02;26.30;52.40
5461;DHT22;2753;49.196;8.286;2022-07-15T14:31:28;26.20;51.10
5461;DHT22;2753;49.196;8.286;2022-07-15T14:33:54;26.10;52.10
5461;DHT22;2753;49.196;8.286;2022-07-15T14:36:19;26.00;52.00
5461;DHT22;2753;49.196;8.286;2022-07-15T14:38:45;26.20;52.20
5461;DHT22;2753;49.196;8.286;2022-07-15T14:41:11;26.30;52.20
5461;DHT22;2753;49.196;8.286;2022-07-15T14:43:37;26.30;51.90
5461;DHT22;2753;49.196;8.286;2022-07-15T14:46:02;26.30;51.70
5461;DHT22;2753;49.196;8.286;2022-07-15T14:48:28;26.40;52.20
5461;DHT22;2753;49.196;8.286;2022-07-15T14:50:54;26.40;52.10
5461;DHT22;2753;49.196;8.286;2022-07-15T14:53:20;26.30;51.80
5461;DHT22;2753;49.196;8.286;2022-07-15T14:55:46;26.30;51.90
5461;DHT22;2753;49.196;8.286;2022-07-15T14:58:12;26.30;52.00
5461;DHT22;2753;49.196;8.286;2022-07-15T15:00:42;26.30;51.80
5461;DHT22;2753;49.196;8.286;2022-07-15T15:03:08;26.30;51.70
5461;DHT22;2753;49.196;8.286;2022-07-15T15:05:34;26.30;51.80
5461;DHT22;2753;49.196;8.286;2022-07-15T15:08:00;26.30;51.70
5461;DHT22;2753;49.196;8.286;2022-07-15T15:10:26;26.30;51.90
5461;DHT22;2753;49.196;8.286;2022-07-15T15:12:52;26.30;51.90
5461;DHT22;2753;49.196;8.286;2022-07-15T15:15:17;26.40;51.90
5461;DHT22;2753;49.196;8.286;2022-07-15T15:17:43;26.40;51.70
5461;DHT22;2753;49.196;8.286;2022-07-15T15:20:10;26.30;51.50
5461;DHT22;2753;49.196;8.286;2022-07-15T15:22:36;26.20;51.30
5461;DHT22;2753;49.196;8.286;2022-07-15T15:25:04;26.20;51.50
5461;DHT22;2753;49.196;8.286;2022-07-15T15:27:30;26.00;51.40
5461;DHT22;2753;49.196;8.286;2022-07-15T15:29:56;26.10;51.60
5461;DHT22;2753;49.196;8.286;2022-07-15T15:32:22;26.20;51.90
5461;DHT22;2753;49.196;8.286;2022-07-15T15:34:48;26.20;51.90
5461;DHT22;2753;49.196;8.286;2022-07-15T15:37:13;26.20;51.90
5461;DHT22;2753;49.196;8.286;2022-07-15T15:39:39;26.20;51.70
5461;DHT22;2753;49.196;8.286;2022-07-15T15:42:06;26.20;51.60
5461;DHT22;2753;49.196;8.286;2022-07-15T15:44:31;26.20;51.80
5461;DHT22;2753;49.196;8.286;2022-07-15T15:46:57;26.20;51.30
5461;DHT22;2753;49.196;8.286;2022-07-15T15:49:23;26.20;51.20
5461;DHT22;2753;49.196;8.286;2022-07-15T15:51:49;26.20;51.60
5461;DHT22;2753;49.196;8.286;2022-07-15T15:54:14;26.10;51.00
5461;DHT22;2753;49.196;8.286;2022-07-15T15:56:40;26.10;51.10
5461;DHT22;2753;49.196;8.286;2022-07-15T15:59:06;26.10;51.20
5461;DHT22;2753;49.196;8.286;2022-07-15T16:01:32;26.20;51.30
5461;DHT22;2753;49.196;8.286;2022-07-15T16:03:58;26.10;51.00
5461;DHT22;2753;49.196;8.286;2022-07-15T16:06:24;26.00;50.80
5461;DHT22;2753;49.196;8.286;2022-07-15T16:08:51;26.00;50.70
5461;DHT22;2753;49.196;8.286;2022-07-15T16:11:17;26.00;51.00
5461;DHT22;2753;49.196;8.286;2022-07-15T16:13:43;26.00;50.90
5461;DHT22;2753;49.196;8.286;2022-07-15T16:16:09;26.00;51.00
5461;DHT22;2753;49.196;8.286;2022-07-15T16:18:34;26.00;50.90
5461;DHT22;2753;49.196;8.286;2022-07-15T16:21:00;26.00;50.90
5461;DHT22;2753;49.196;8.286;2022-07-15T16:23:26;26.00;50.70
5461;DHT22;2753;49.196;8.286;2022-07-15T16:25:51;26.00;50.60
5461;DHT22;2753;49.196;8.286;2022-07-15T16:28:17;26.00;50.60
5461;DHT22;2753;49.196;8.286;2022-07-15T16:30:44;25.90;50.50
5461;DHT22;2753;49.196;8.286;2022-07-15T16:33:11;25.70;50.40
5461;DHT22;2753;49.196;8.286;2022-07-15T16:35:37;25.80;50.60
5461;DHT22;2753;49.196;8.286;2022-07-15T16:38:05;25.80;50.70
5461;DHT22;2753;49.196;8.286;2022-07-15T16:40:31;25.80;50.80
5461;DHT22;2753;49.196;8.286;2022-07-15T16:42:57;25.90;51.00
5461;DHT22;2753;49.196;8.286;2022-07-15T16:45:23;25.80;50.50
5461;DHT22;2753;49.196;8.286;2022-07-15T16:47:49;25.80;50.80
5461;DHT22;2753;49.196;8.286;2022-07-15T16:50:15;25.80;50.70
5461;DHT22;2753;49.196;8.286;2022-07-15T16:52:41;25.80;50.80
5461;DHT22;2753;49.196;8.286;2022-07-15T16:55:08;25.80;50.60
5461;DHT22;2753;49.196;8.286;2022-07-15T16:57:34;25.80;50.50